createdAt,value
2019-02-12T00:01:36.725Z,99.90
2019-02-12T00:04:05.513Z,99.90
2019-02-12T00:06:33.894Z,99.90
2019-02-12T00:09:02.282Z,99.90
2019-02-12T00:11:30.681Z,99.90
2019-02-12T00:13:59.406Z,99.90
2019-02-12T00:16:27.786Z,99.90
2019-02-12T00:18:56.467Z,99.90
2019-02-12T00:21:25.087Z,99.90
2019-02-12T00:23:53.487Z,99.90
2019-02-12T00:26:21.878Z,99.90
2019-02-12T00:28:50.530Z,99.90
2019-02-12T00:31:18.927Z,99.90
2019-02-12T00:33:47.312Z,99.90
2019-02-12T00:36:15.721Z,99.90
2019-02-12T00:38:44.113Z,99.90
2019-02-12T00:41:12.511Z,99.90
2019-02-12T00:43:40.912Z,99.90
2019-02-12T00:46:09.318Z,99.90
2019-02-12T00:48:37.709Z,99.90
2019-02-12T00:51:06.126Z,99.90
2019-02-12T00:53:34.526Z,99.90
2019-02-12T00:56:02.926Z,99.90
2019-02-12T00:58:31.329Z,99.90
2019-02-12T01:00:59.718Z,99.90
2019-02-12T01:03:28.123Z,99.90
2019-02-12T01:05:56.513Z,99.90
2019-02-12T01:08:24.906Z,99.90
2019-02-12T01:10:53.305Z,99.90
2019-02-12T01:13:22.039Z,99.90
2019-02-12T01:15:50.424Z,99.90
2019-02-12T01:18:18.818Z,99.90
2019-02-12T01:20:47.227Z,99.90
2019-02-12T01:23:15.620Z,99.90
2019-02-12T01:25:44.006Z,99.90
2019-02-12T01:28:12.410Z,99.90
2019-02-12T01:30:40.839Z,99.90
2019-02-12T01:33:09.229Z,99.90
2019-02-12T01:35:37.696Z,99.90
2019-02-12T01:38:06.132Z,99.90
2019-02-12T01:40:34.529Z,99.90
2019-02-12T01:43:02.937Z,99.90
2019-02-12T01:45:31.322Z,99.90
2019-02-12T01:47:59.726Z,99.90
2019-02-12T01:50:28.431Z,99.90
2019-02-12T01:52:56.838Z,99.90
2019-02-12T01:55:25.235Z,99.90
2019-02-12T01:57:53.913Z,99.90
2019-02-12T02:00:22.310Z,99.90
2019-02-12T02:02:50.698Z,99.90
2019-02-12T02:05:19.110Z,99.90
2019-02-12T02:07:47.512Z,99.90
2019-02-12T02:10:17.269Z,99.90
2019-02-12T02:12:45.679Z,99.90
2019-02-12T02:15:15.020Z,99.90
2019-02-12T02:17:43.419Z,99.90
2019-02-12T02:20:31.167Z,99.90
2019-02-12T02:22:59.564Z,99.90
2019-02-12T02:25:28.169Z,99.90
2019-02-12T02:27:56.559Z,99.90
2019-02-12T02:30:24.992Z,99.90
2019-02-12T02:32:53.407Z,99.90
2019-02-12T02:35:21.853Z,99.90
2019-02-12T02:37:50.247Z,99.90
2019-02-12T02:40:18.656Z,99.90
2019-02-12T02:42:47.428Z,99.90
2019-02-12T02:45:15.834Z,99.90
2019-02-12T02:47:44.261Z,99.90
2019-02-12T02:50:12.648Z,99.90
2019-02-12T02:52:41.041Z,99.90
2019-02-12T02:55:09.974Z,99.90
2019-02-12T02:57:38.346Z,99.90
2019-02-12T03:00:09.303Z,99.90
2019-02-12T03:02:37.689Z,99.90
2019-02-12T03:05:08.611Z,99.90
2019-02-12T03:07:37.213Z,99.90
2019-02-12T03:10:07.124Z,99.90
2019-02-12T03:12:35.520Z,99.90
2019-02-12T03:15:04.383Z,99.90
2019-02-12T03:17:32.781Z,99.90
2019-02-12T03:20:01.185Z,99.90
2019-02-12T03:22:30.160Z,99.90
2019-02-12T03:24:58.555Z,99.90
2019-02-12T03:27:26.936Z,99.90
2019-02-12T03:29:55.642Z,99.90
2019-02-12T03:32:24.042Z,99.90
2019-02-12T03:34:52.441Z,99.90
2019-02-12T03:37:20.922Z,99.90
2019-02-12T03:39:49.309Z,99.90
2019-02-12T03:42:17.723Z,99.90
2019-02-12T03:44:46.657Z,99.90
2019-02-12T03:47:15.067Z,99.90
2019-02-12T03:49:43.462Z,99.90
2019-02-12T03:52:13.237Z,99.90
2019-02-12T03:54:41.912Z,99.90
2019-02-12T03:57:10.301Z,99.90
2019-02-12T03:59:38.690Z,99.90
2019-02-12T04:02:07.093Z,99.90
2019-02-12T04:04:54.818Z,99.90
2019-02-12T04:07:23.236Z,99.90
2019-02-12T04:09:51.629Z,99.90
2019-02-12T04:12:20.021Z,99.90
2019-02-12T04:14:48.711Z,99.90
2019-02-12T04:17:17.387Z,99.90
2019-02-12T04:19:45.834Z,99.90
2019-02-12T04:22:22.139Z,99.90
2019-02-12T04:24:44.375Z,99.90
2019-02-12T04:27:12.770Z,99.90
2019-02-12T04:29:41.175Z,99.90
2019-02-12T04:32:09.565Z,99.90
2019-02-12T04:34:37.964Z,99.90
2019-02-12T04:37:06.354Z,99.90
2019-02-12T04:39:34.742Z,99.90
2019-02-12T04:42:03.130Z,99.90
2019-02-12T04:44:31.530Z,99.90
2019-02-12T04:46:59.938Z,99.90
2019-02-12T04:49:47.666Z,99.90
2019-02-12T04:52:16.079Z,99.90
2019-02-12T04:54:44.735Z,99.90
2019-02-12T04:57:13.187Z,99.90
2019-02-12T04:59:41.652Z,99.90
2019-02-12T05:02:10.101Z,99.90
2019-02-12T05:04:38.502Z,99.90
2019-02-12T05:07:07.170Z,99.90
2019-02-12T05:09:39.110Z,99.90
2019-02-12T05:12:07.543Z,99.90
2019-02-12T05:14:35.954Z,99.90
2019-02-12T05:17:04.377Z,99.90
2019-02-12T05:19:32.750Z,99.90
2019-02-12T05:22:01.159Z,99.90
2019-02-12T05:24:29.547Z,99.90
2019-02-12T05:26:57.966Z,99.90
2019-02-12T05:29:26.389Z,99.90
2019-02-12T05:32:00.458Z,99.90
2019-02-12T05:34:28.861Z,99.90
2019-02-12T05:36:57.263Z,99.90
2019-02-12T05:39:25.664Z,99.90
2019-02-12T05:41:54.068Z,99.90
2019-02-12T05:44:22.471Z,99.90
2019-02-12T05:46:50.859Z,99.90
2019-02-12T05:49:19.256Z,99.90
2019-02-12T05:51:47.654Z,99.90
2019-02-12T05:54:16.058Z,99.90
2019-02-12T05:56:44.475Z,99.90
2019-02-12T05:59:12.862Z,99.90
2019-02-12T06:01:41.275Z,99.90
2019-02-12T06:04:09.678Z,99.90
2019-02-12T06:06:38.086Z,99.90
2019-02-12T06:09:06.507Z,99.90
2019-02-12T06:11:34.895Z,99.90
2019-02-12T06:14:03.283Z,99.90
2019-02-12T06:16:31.698Z,99.90
2019-02-12T06:19:00.659Z,99.90
2019-02-12T06:21:29.170Z,99.90
2019-02-12T06:23:57.559Z,99.90
2019-02-12T06:26:25.971Z,99.90
2019-02-12T06:28:54.374Z,99.90
2019-02-12T06:31:22.773Z,99.90
2019-02-12T06:33:51.178Z,99.90
2019-02-12T06:36:19.580Z,99.90
2019-02-12T06:38:48.025Z,99.90
2019-02-12T06:41:16.494Z,99.90
2019-02-12T06:43:44.890Z,99.90
2019-02-12T06:46:13.581Z,99.90
2019-02-12T06:48:41.970Z,99.90
2019-02-12T06:51:10.370Z,99.90
2019-02-12T06:53:38.979Z,99.90
2019-02-12T06:56:07.490Z,99.90
2019-02-12T06:58:36.150Z,99.90
2019-02-12T07:01:04.567Z,99.90
2019-02-12T07:03:53.587Z,99.90
2019-02-12T07:06:52.049Z,99.90
2019-02-12T07:09:29.229Z,99.90
2019-02-12T07:12:27.775Z,99.90
2019-02-12T07:15:04.433Z,99.90
2019-02-12T07:17:58.573Z,99.90
2019-02-12T07:20:45.002Z,99.90
2019-02-12T07:23:40.162Z,99.90
2019-02-12T07:26:28.486Z,99.90
2019-02-12T07:29:02.686Z,99.90
2019-02-12T07:31:45.980Z,99.90
2019-02-12T07:34:23.274Z,99.90
2019-02-12T07:37:22.165Z,99.90
2019-02-12T07:40:17.753Z,99.90
2019-02-12T07:42:51.924Z,99.90
2019-02-12T07:45:35.026Z,99.90
2019-02-12T07:48:30.031Z,99.90
2019-02-12T07:51:30.598Z,99.90
2019-02-12T07:54:13.495Z,99.90
2019-02-12T07:57:14.151Z,99.90
2019-02-12T08:00:02.299Z,99.90
2019-02-12T08:02:59.746Z,99.90
2019-02-12T08:05:47.845Z,99.90
2019-02-12T08:08:48.331Z,99.90
2019-02-12T08:11:25.642Z,99.90
2019-02-12T08:14:27.480Z,99.90
2019-02-12T08:17:18.761Z,99.90
2019-02-12T08:20:02.363Z,99.90
2019-02-12T08:22:48.647Z,99.90
2019-02-12T08:25:31.754Z,99.90
2019-02-12T08:28:08.984Z,99.90
2019-02-12T08:30:43.155Z,99.90
2019-02-12T08:33:26.592Z,99.90
2019-02-12T08:36:04.291Z,99.90
2019-02-12T08:38:47.486Z,99.90
2019-02-12T08:41:30.970Z,99.90
2019-02-12T08:44:19.099Z,99.90
2019-02-12T08:47:15.306Z,99.90
2019-02-12T08:50:04.770Z,99.90
2019-02-12T08:52:52.677Z,99.90
2019-02-12T08:55:26.741Z,99.90
2019-02-12T08:58:04.194Z,99.90
2019-02-12T09:00:41.425Z,99.90
2019-02-12T09:03:33.909Z,99.90
2019-02-12T09:06:26.491Z,99.90
2019-02-12T09:09:00.683Z,99.90
2019-02-12T09:11:55.075Z,99.90
2019-02-12T09:14:47.471Z,99.80
2019-02-12T09:17:24.797Z,99.50
2019-02-12T09:19:56.263Z,99.40
2019-02-12T09:22:36.773Z,99.40
2019-02-12T09:25:10.934Z,98.80
2019-02-12T09:27:44.954Z,98.30
2019-02-12T09:30:35.770Z,98.00
2019-02-12T09:33:28.072Z,97.70
2019-02-12T09:36:17.122Z,97.50
2019-02-12T09:38:48.615Z,97.00
2019-02-12T09:41:20.082Z,96.80
2019-02-12T09:44:06.490Z,96.50
2019-02-12T09:46:52.892Z,96.00
2019-02-12T09:49:43.858Z,95.60
2019-02-12T09:52:42.716Z,95.30
2019-02-12T09:55:16.891Z,94.50
2019-02-12T09:57:57.323Z,94.00
2019-02-12T10:00:43.138Z,93.70
2019-02-12T10:03:36.922Z,93.80
2019-02-12T10:06:21.606Z,93.20
2019-02-12T10:08:56.617Z,92.90
2019-02-12T10:11:36.906Z,92.80
2019-02-12T10:14:23.313Z,92.70
2019-02-12T10:17:17.969Z,92.50
2019-02-12T10:19:49.509Z,92.40
2019-02-12T10:22:41.693Z,91.50
2019-02-12T10:25:13.503Z,91.20
2019-02-12T10:27:50.720Z,90.80
2019-02-12T10:30:31.195Z,91.00
2019-02-12T10:32:59.650Z,90.50
2019-02-12T10:35:28.045Z,90.40
2019-02-12T10:37:56.443Z,90.50
2019-02-12T10:40:24.847Z,90.60
2019-02-12T10:42:53.243Z,89.40
2019-02-12T10:45:21.665Z,89.40
2019-02-12T10:47:50.054Z,89.70
2019-02-12T10:50:18.452Z,89.60
2019-02-12T10:52:46.850Z,89.60
2019-02-12T10:55:15.241Z,89.00
2019-02-12T10:57:43.652Z,88.60
2019-02-12T11:00:13.885Z,88.90
2019-02-12T11:02:42.270Z,89.10
2019-02-12T11:05:10.906Z,89.10
2019-02-12T11:07:39.319Z,88.80
2019-02-12T11:10:09.262Z,89.50
2019-02-12T11:12:37.662Z,90.00
2019-02-12T11:15:07.990Z,90.40
2019-02-12T11:17:36.399Z,90.70
2019-02-12T11:20:07.333Z,90.60
2019-02-12T11:22:35.714Z,90.80
2019-02-12T11:25:06.462Z,90.90
2019-02-12T11:27:34.851Z,90.80
2019-02-12T11:30:04.715Z,90.60
2019-02-12T11:32:33.102Z,90.80
2019-02-12T11:35:01.538Z,90.80
2019-02-12T11:37:29.910Z,90.60
2019-02-12T11:39:58.304Z,90.30
2019-02-12T11:42:26.722Z,90.00
2019-02-12T11:44:55.110Z,87.60
2019-02-12T11:47:23.510Z,86.30
2019-02-12T11:49:51.921Z,86.30
2019-02-12T11:52:20.306Z,85.30
2019-02-12T11:54:48.711Z,85.00
2019-02-12T11:57:17.120Z,83.80
2019-02-12T11:59:45.502Z,83.70
2019-02-12T12:02:13.906Z,83.50
2019-02-12T12:04:42.298Z,83.40
2019-02-12T12:07:10.687Z,83.50
2019-02-12T12:09:39.103Z,83.10
2019-02-12T12:12:07.486Z,83.60
2019-02-12T12:14:36.235Z,83.70
2019-02-12T12:17:04.699Z,81.90
2019-02-12T12:19:33.366Z,77.00
2019-02-12T12:22:01.753Z,75.00
2019-02-12T12:24:30.138Z,76.10
2019-02-12T12:27:17.887Z,75.80
2019-02-12T12:29:46.270Z,76.20
2019-02-12T12:32:14.674Z,76.70
2019-02-12T12:34:43.079Z,75.90
2019-02-12T12:37:11.490Z,76.20
2019-02-12T12:39:39.883Z,76.60
2019-02-12T12:42:08.283Z,76.50
2019-02-12T12:44:36.671Z,77.00
2019-02-12T12:47:05.058Z,78.10
2019-02-12T12:49:33.466Z,78.70
2019-02-12T12:52:01.926Z,76.90
2019-02-12T12:54:30.338Z,76.60
2019-02-12T12:56:58.724Z,75.90
2019-02-12T12:59:27.106Z,75.10
2019-02-12T13:01:55.578Z,74.90
2019-02-12T13:04:23.986Z,75.70
2019-02-12T13:06:52.374Z,76.50
2019-02-12T13:09:20.778Z,76.90
2019-02-12T13:11:49.184Z,77.60
2019-02-12T13:14:17.581Z,77.60
2019-02-12T13:16:45.962Z,77.00
2019-02-12T13:19:14.369Z,76.30
2019-02-12T13:21:43.039Z,75.70
2019-02-12T13:24:11.450Z,74.80
2019-02-12T13:26:39.840Z,74.80
2019-02-12T13:29:08.238Z,75.00
2019-02-12T13:31:36.641Z,75.70
2019-02-12T13:34:05.030Z,76.10
2019-02-12T13:36:33.655Z,76.90
2019-02-12T13:39:02.054Z,76.80
2019-02-12T13:41:30.708Z,75.80
2019-02-12T13:43:59.100Z,75.70
2019-02-12T13:46:27.489Z,75.80
2019-02-12T13:48:55.996Z,76.10
2019-02-12T13:51:24.407Z,76.50
2019-02-12T13:53:52.809Z,76.60
2019-02-12T13:56:21.280Z,76.60
2019-02-12T13:58:50.151Z,75.70
2019-02-12T14:01:18.612Z,75.80
2019-02-12T14:03:47.018Z,76.10
2019-02-12T14:06:15.506Z,76.40
2019-02-12T14:09:04.658Z,76.60
2019-02-12T14:11:33.038Z,76.70
2019-02-12T14:14:01.544Z,76.60
2019-02-12T14:16:29.951Z,76.80
2019-02-12T14:18:58.342Z,77.50
2019-02-12T14:21:26.732Z,77.70
2019-02-12T14:23:55.134Z,78.00
2019-02-12T14:26:23.520Z,78.40
2019-02-12T14:28:51.930Z,78.70
2019-02-12T14:31:20.311Z,79.10
2019-02-12T14:33:48.711Z,79.00
2019-02-12T14:36:17.174Z,79.30
2019-02-12T14:38:45.583Z,78.80
2019-02-12T14:41:13.982Z,79.00
2019-02-12T14:43:42.370Z,79.20
2019-02-12T14:46:10.764Z,79.40
2019-02-12T14:48:39.174Z,79.90
2019-02-12T14:51:07.550Z,80.10
2019-02-12T14:53:36.300Z,80.60
2019-02-12T14:56:11.160Z,80.80
2019-02-12T14:58:35.097Z,81.30
2019-02-12T15:01:03.895Z,81.60
2019-02-12T15:03:32.574Z,82.10
2019-02-12T15:06:00.958Z,81.30
2019-02-12T15:08:29.346Z,81.50
2019-02-12T15:10:57.743Z,82.00
2019-02-12T15:13:26.131Z,82.50
2019-02-12T15:15:54.531Z,83.00
2019-02-12T15:18:22.986Z,83.10
2019-02-12T15:20:51.382Z,83.70
2019-02-12T15:23:19.782Z,83.70
2019-02-12T15:25:48.175Z,83.90
2019-02-12T15:28:16.574Z,84.30
2019-02-12T15:30:44.970Z,84.40
2019-02-12T15:33:13.374Z,84.60
2019-02-12T15:35:41.767Z,84.90
2019-02-12T15:38:10.155Z,85.20
2019-02-12T15:40:38.557Z,85.40
2019-02-12T15:43:06.957Z,85.50
2019-02-12T15:45:35.628Z,86.00
2019-02-12T15:48:04.027Z,86.10
2019-02-12T15:50:32.692Z,86.50
2019-02-12T15:53:01.090Z,86.60
2019-02-12T15:55:29.498Z,86.90
2019-02-12T15:57:57.901Z,86.90
2019-02-12T16:00:26.306Z,87.00
2019-02-12T16:02:56.090Z,87.20
2019-02-12T16:05:24.811Z,87.30
2019-02-12T16:07:53.215Z,88.20
2019-02-12T16:10:21.669Z,87.60
2019-02-12T16:12:51.561Z,87.70
2019-02-12T16:15:24.381Z,88.30
2019-02-12T16:17:51.834Z,88.60
2019-02-12T16:20:20.229Z,88.80
2019-02-12T16:22:48.614Z,89.30
2019-02-12T16:25:17.030Z,89.70
2019-02-12T16:27:45.443Z,90.10
2019-02-12T16:30:15.882Z,90.30
2019-02-12T16:32:44.267Z,90.60
2019-02-12T16:35:14.410Z,90.80
2019-02-12T16:37:42.854Z,91.00
2019-02-12T16:40:13.186Z,91.10
2019-02-12T16:42:41.575Z,91.30
2019-02-12T16:45:12.923Z,91.50
2019-02-12T16:47:41.307Z,91.70
2019-02-12T16:50:09.693Z,91.90
2019-02-12T16:52:38.106Z,92.10
2019-02-12T16:55:09.429Z,92.20
2019-02-12T16:57:37.917Z,92.30
2019-02-12T17:00:13.914Z,92.40
2019-02-12T17:02:42.318Z,92.60
2019-02-12T17:05:12.751Z,92.80
2019-02-12T17:07:41.161Z,93.00
2019-02-12T17:10:10.486Z,93.00
2019-02-12T17:12:38.882Z,93.20
2019-02-12T17:15:09.921Z,93.20
2019-02-12T17:17:38.310Z,93.30
2019-02-12T17:20:15.710Z,93.50
2019-02-12T17:22:44.115Z,93.60
2019-02-12T17:25:13.338Z,93.80
2019-02-12T17:27:41.727Z,94.00
2019-02-12T17:30:17.792Z,94.30
2019-02-12T17:32:46.173Z,94.40
2019-02-12T17:35:14.645Z,94.60
2019-02-12T17:37:43.278Z,94.70
2019-02-12T17:40:17.322Z,94.90
2019-02-12T17:42:45.714Z,95.00
2019-02-12T17:45:19.880Z,95.10
2019-02-12T17:47:48.266Z,95.20
2019-02-12T17:50:16.656Z,95.30
2019-02-12T17:52:45.063Z,95.40
2019-02-12T17:55:13.542Z,95.60
2019-02-12T17:57:41.943Z,95.80
2019-02-12T18:00:17.863Z,96.00
2019-02-12T18:02:46.256Z,96.10
2019-02-12T18:05:14.654Z,96.30
2019-02-12T18:07:43.067Z,96.50
2019-02-12T18:10:12.391Z,96.70
2019-02-12T18:12:40.797Z,97.00
2019-02-12T18:15:11.527Z,97.00
2019-02-12T18:17:39.917Z,97.10
2019-02-12T18:20:10.366Z,97.00
2019-02-12T18:22:38.774Z,97.00
2019-02-12T18:25:09.504Z,97.00
2019-02-12T18:27:38.188Z,97.00
2019-02-12T18:30:17.650Z,97.00
2019-02-12T18:32:46.061Z,97.10
2019-02-12T18:35:14.868Z,97.10
2019-02-12T18:37:43.306Z,97.20
2019-02-12T18:40:15.727Z,97.30
2019-02-12T18:42:44.097Z,97.40
2019-02-12T18:45:21.378Z,97.40
2019-02-12T18:47:49.774Z,97.50
2019-02-12T18:50:18.248Z,97.80
2019-02-12T18:52:46.652Z,97.50
2019-02-12T18:55:16.000Z,97.60
2019-02-12T18:57:44.386Z,97.60
2019-02-12T19:00:15.717Z,97.60
2019-02-12T19:02:44.106Z,97.70
2019-02-12T19:05:12.511Z,97.70
2019-02-12T19:07:42.716Z,97.70
2019-02-12T19:10:14.979Z,97.80
2019-02-12T19:12:43.682Z,97.90
2019-02-12T19:15:17.022Z,97.90
2019-02-12T19:17:48.370Z,98.10
2019-02-12T19:20:16.763Z,98.10
2019-02-12T19:22:45.147Z,98.10
2019-02-12T19:25:13.613Z,97.90
2019-02-12T19:27:42.019Z,97.80
2019-02-12T19:30:13.101Z,97.80
2019-02-12T19:32:41.502Z,97.80
2019-02-12T19:35:11.151Z,97.80
2019-02-12T19:37:39.626Z,97.80
2019-02-12T19:40:10.175Z,97.80
2019-02-12T19:42:38.567Z,97.80
2019-02-12T19:45:13.050Z,97.80
2019-02-12T19:47:41.445Z,97.80
2019-02-12T19:50:10.869Z,98.10
2019-02-12T19:52:39.269Z,97.70
2019-02-12T19:55:09.514Z,97.70
2019-02-12T19:57:37.910Z,97.60
2019-02-12T20:00:19.408Z,97.60
2019-02-12T20:02:48.433Z,97.60
2019-02-12T20:05:16.824Z,97.70
2019-02-12T20:07:45.249Z,97.80
2019-02-12T20:10:14.775Z,97.90
2019-02-12T20:12:43.178Z,98.00
2019-02-12T20:15:16.877Z,98.10
2019-02-12T20:17:45.271Z,98.20
2019-02-12T20:20:14.024Z,98.40
2019-02-12T20:22:42.428Z,98.60
2019-02-12T20:25:11.969Z,99.10
2019-02-12T20:27:40.372Z,98.90
2019-02-12T20:30:13.684Z,98.90
2019-02-12T20:32:42.163Z,99.00
2019-02-12T20:35:13.179Z,99.00
2019-02-12T20:37:41.574Z,99.00
2019-02-12T20:40:12.107Z,99.10
2019-02-12T20:42:40.519Z,99.20
2019-02-12T20:45:11.920Z,99.40
2019-02-12T20:47:40.346Z,99.60
2019-02-12T20:50:11.667Z,99.80
2019-02-12T20:52:41.191Z,99.90
2019-02-12T20:55:11.524Z,99.90
2019-02-12T20:57:39.974Z,99.90
2019-02-12T21:00:14.387Z,99.90
2019-02-12T21:02:42.778Z,99.90
2019-02-12T21:05:13.707Z,99.90
2019-02-12T21:07:42.151Z,99.90
2019-02-12T21:10:13.432Z,99.90
2019-02-12T21:12:41.852Z,99.90
2019-02-12T21:15:13.541Z,99.90
2019-02-12T21:17:42.011Z,99.90
2019-02-12T21:20:11.350Z,99.90
2019-02-12T21:22:40.897Z,99.90
2019-02-12T21:25:11.338Z,99.90
2019-02-12T21:27:39.737Z,99.90
2019-02-12T21:30:17.142Z,99.90
2019-02-12T21:32:45.546Z,99.90
2019-02-12T21:35:14.199Z,99.90
2019-02-12T21:37:42.612Z,99.90
2019-02-12T21:40:16.390Z,99.90
2019-02-12T21:42:44.799Z,99.90
2019-02-12T21:45:13.668Z,99.90
2019-02-12T21:47:42.543Z,99.90
2019-02-12T21:50:12.562Z,99.90
2019-02-12T21:52:41.051Z,99.90
2019-02-12T21:55:12.528Z,99.90
2019-02-12T21:57:40.994Z,99.90
2019-02-12T22:00:12.544Z,99.90
2019-02-12T22:02:40.955Z,99.90
2019-02-12T22:05:11.758Z,99.90
2019-02-12T22:07:40.247Z,99.90
2019-02-12T22:10:11.405Z,99.90
2019-02-12T22:12:39.862Z,99.90
2019-02-12T22:15:11.066Z,99.90
2019-02-12T22:17:40.714Z,99.90
2019-02-12T22:20:11.453Z,99.90
2019-02-12T22:22:39.874Z,99.90
2019-02-12T22:25:10.350Z,99.90
2019-02-12T22:27:40.657Z,99.90
2019-02-12T22:30:17.135Z,99.90
2019-02-12T22:32:45.550Z,99.90
2019-02-12T22:35:14.695Z,99.90
2019-02-12T22:37:43.190Z,99.90
2019-02-12T22:40:14.010Z,99.90
2019-02-12T22:42:42.445Z,99.90
2019-02-12T22:45:16.559Z,99.90
2019-02-12T22:47:44.998Z,99.90
2019-02-12T22:50:13.878Z,99.90
2019-02-12T22:52:42.586Z,99.90
2019-02-12T22:55:11.834Z,99.90
2019-02-12T22:57:48.573Z,99.90
2019-02-12T23:00:44.808Z,99.90
2019-02-12T23:03:13.454Z,99.90
2019-02-12T23:05:41.862Z,99.90
2019-02-12T23:08:10.262Z,99.90
2019-02-12T23:10:38.654Z,99.90
2019-02-12T23:13:07.065Z,99.90
2019-02-12T23:15:35.703Z,99.90
2019-02-12T23:18:04.343Z,99.90
2019-02-12T23:20:32.763Z,99.90
2019-02-12T23:23:01.230Z,99.90
2019-02-12T23:25:29.634Z,99.90
2019-02-12T23:27:58.078Z,99.90
2019-02-12T23:30:26.489Z,99.90
2019-02-12T23:32:54.908Z,99.90
2019-02-12T23:35:23.302Z,99.90
2019-02-12T23:37:51.702Z,99.90
2019-02-12T23:40:20.168Z,99.90
2019-02-12T23:42:48.597Z,99.90
2019-02-12T23:45:17.129Z,99.90
2019-02-12T23:47:45.534Z,99.90
2019-02-12T23:50:13.948Z,99.90
2019-02-12T23:52:42.363Z,99.90
2019-02-12T23:55:10.775Z,99.90
2019-02-12T23:57:39.170Z,99.90
